createdAt,value
2017-08-05T00:00:32.993Z,99.99
2017-08-05T00:01:42.951Z,99.99
2017-08-05T00:02:52.903Z,99.99
2017-08-05T00:04:03.174Z,99.99
2017-08-05T00:05:13.450Z,99.99
2017-08-05T00:06:23.720Z,99.99
2017-08-05T00:07:33.992Z,99.99
2017-08-05T00:08:43.952Z,99.99
2017-08-05T00:09:53.912Z,99.99
2017-08-05T00:11:03.872Z,99.99
2017-08-05T00:12:14.143Z,99.99
2017-08-05T00:13:24.410Z,99.99
2017-08-05T00:14:34.699Z,99.99
2017-08-05T00:15:44.662Z,99.99
2017-08-05T00:16:54.933Z,99.99
2017-08-05T00:18:04.932Z,99.99
2017-08-05T00:19:15.205Z,99.99
2017-08-05T00:20:25.477Z,99.99
2017-08-05T00:21:35.432Z,99.99
2017-08-05T00:22:45.702Z,99.99
2017-08-05T00:23:55.983Z,99.99
2017-08-05T00:25:06.258Z,99.99
2017-08-05T00:26:16.530Z,99.99
2017-08-05T00:27:26.801Z,99.99
2017-08-05T00:28:37.066Z,99.99
2017-08-05T00:29:47.334Z,99.99
2017-08-05T00:30:57.607Z,99.99
2017-08-05T00:32:07.252Z,99.99
2017-08-05T00:33:17.522Z,99.99
2017-08-05T00:34:27.796Z,99.99
2017-08-05T00:35:38.078Z,99.99
2017-08-05T00:36:48.349Z,99.99
2017-08-05T00:37:58.626Z,99.99
2017-08-05T00:39:08.903Z,99.99
2017-08-05T00:40:19.169Z,99.99
2017-08-05T00:41:29.443Z,99.99
2017-08-05T00:42:39.717Z,99.99
2017-08-05T00:43:49.991Z,99.99
2017-08-05T00:45:00.268Z,99.99
2017-08-05T00:46:10.230Z,99.99
2017-08-05T00:47:20.187Z,99.99
2017-08-05T00:48:30.458Z,99.99
2017-08-05T00:49:40.430Z,99.99
2017-08-05T00:50:50.703Z,99.99
2017-08-05T00:52:00.983Z,99.99
2017-08-05T00:53:11.251Z,99.99
2017-08-05T00:54:21.539Z,99.99
2017-08-05T00:55:31.807Z,99.99
2017-08-05T00:56:42.099Z,99.99
2017-08-05T00:57:52.369Z,99.99
2017-08-05T00:59:02.318Z,99.99
2017-08-05T01:00:12.586Z,99.99
2017-08-05T01:01:22.855Z,99.99
2017-08-05T01:02:33.129Z,99.99
2017-08-05T01:03:43.399Z,99.99
2017-08-05T01:04:53.675Z,99.99
2017-08-05T01:06:03.952Z,99.99
2017-08-05T01:07:13.906Z,99.99
2017-08-05T01:08:24.177Z,99.99
2017-08-05T01:09:34.464Z,99.99
2017-08-05T01:10:44.427Z,99.99
2017-08-05T01:11:54.697Z,99.99
2017-08-05T01:13:04.964Z,99.99
2017-08-05T01:14:15.241Z,99.99
2017-08-05T01:15:25.514Z,99.99
2017-08-05T01:16:35.789Z,99.99
2017-08-05T01:17:46.066Z,99.99
2017-08-05T01:18:56.333Z,99.99
2017-08-05T01:20:06.290Z,99.99
2017-08-05T01:21:16.250Z,99.99
2017-08-05T01:22:26.207Z,99.99
2017-08-05T01:23:36.479Z,99.99
2017-08-05T01:24:46.753Z,99.99
2017-08-05T01:25:57.021Z,99.99
2017-08-05T01:27:07.291Z,99.99
2017-08-05T01:28:17.560Z,99.99
2017-08-05T01:29:27.835Z,99.99
2017-08-05T01:30:38.127Z,99.99
2017-08-05T01:31:48.401Z,99.99
2017-08-05T01:32:58.686Z,99.99
2017-08-05T01:34:08.964Z,99.99
2017-08-05T01:35:18.923Z,99.99
2017-08-05T01:36:29.196Z,99.99
2017-08-05T01:37:39.467Z,99.99
2017-08-05T01:38:49.754Z,99.99
2017-08-05T01:39:59.716Z,99.99
2017-08-05T01:41:09.987Z,99.99
2017-08-05T01:42:19.954Z,99.99
2017-08-05T01:43:30.250Z,99.99
2017-08-05T01:44:40.519Z,99.99
2017-08-05T01:45:50.795Z,99.99
2017-08-05T01:47:01.096Z,99.99
2017-08-05T01:48:10.746Z,99.99
2017-08-05T01:49:21.017Z,99.99
2017-08-05T01:50:30.974Z,99.99
2017-08-05T01:51:41.238Z,99.99
2017-08-05T01:52:51.512Z,99.99
2017-08-05T01:54:01.790Z,99.99
2017-08-05T01:55:12.067Z,99.99
2017-08-05T01:56:22.028Z,99.99
2017-08-05T01:57:32.299Z,99.99
2017-08-05T01:58:42.575Z,99.99
2017-08-05T01:59:52.531Z,99.99
2017-08-05T02:01:02.801Z,99.99
2017-08-05T02:02:13.083Z,99.99
2017-08-05T02:03:23.042Z,99.99
2017-08-05T02:04:33.314Z,99.99
2017-08-05T02:05:42.956Z,99.99
2017-08-05T02:06:52.907Z,99.99
2017-08-05T02:08:03.189Z,99.99
2017-08-05T02:09:13.303Z,99.99
2017-08-05T02:10:23.570Z,99.99
2017-08-05T02:11:33.850Z,99.99
2017-08-05T02:12:44.123Z,99.99
2017-08-05T02:13:54.390Z,99.99
2017-08-05T02:15:04.660Z,99.99
2017-08-05T02:16:14.938Z,99.99
2017-08-05T02:17:25.209Z,99.99
2017-08-05T02:18:35.162Z,99.99
2017-08-05T02:19:45.435Z,99.99
2017-08-05T02:20:55.702Z,99.99
2017-08-05T02:22:05.659Z,99.99
2017-08-05T02:23:15.633Z,99.99
2017-08-05T02:24:25.912Z,99.99
2017-08-05T02:25:36.186Z,99.99
2017-08-05T02:26:46.244Z,99.99
2017-08-05T02:27:55.890Z,99.99
2017-08-05T02:29:05.533Z,99.99
2017-08-05T02:30:15.804Z,99.99
2017-08-05T02:31:26.080Z,99.99
2017-08-05T02:32:36.356Z,99.99
2017-08-05T02:33:46.638Z,99.99
2017-08-05T02:34:56.910Z,99.99
2017-08-05T02:36:07.182Z,99.99
2017-08-05T02:37:16.839Z,99.99
2017-08-05T02:38:27.110Z,99.99
2017-08-05T02:39:37.400Z,99.99
2017-08-05T02:40:47.677Z,99.99
2017-08-05T02:41:57.956Z,99.99
2017-08-05T02:43:08.229Z,99.99
2017-08-05T02:44:18.505Z,99.99
2017-08-05T02:45:28.781Z,99.99
2017-08-05T02:46:39.056Z,99.99
2017-08-05T02:47:49.336Z,99.99
2017-08-05T02:48:59.635Z,99.99
2017-08-05T02:50:09.917Z,99.99
2017-08-05T02:51:20.190Z,99.99
2017-08-05T02:52:30.464Z,99.99
2017-08-05T02:53:40.743Z,99.99
2017-08-05T02:54:50.699Z,99.99
2017-08-05T02:56:00.966Z,99.99
2017-08-05T02:57:10.926Z,99.99
2017-08-05T02:58:21.202Z,99.99
2017-08-05T02:59:31.472Z,99.99
2017-08-05T03:00:41.747Z,99.99
2017-08-05T03:01:52.019Z,99.99
2017-08-05T03:03:02.292Z,99.99
2017-08-05T03:04:12.560Z,99.99
2017-08-05T03:05:22.835Z,99.99
2017-08-05T03:06:33.120Z,99.99
2017-08-05T03:07:43.392Z,99.99
2017-08-05T03:08:53.036Z,99.99
2017-08-05T03:10:03.305Z,99.99
2017-08-05T03:11:12.950Z,99.99
2017-08-05T03:12:22.911Z,99.99
2017-08-05T03:13:33.183Z,99.99
2017-08-05T03:14:43.454Z,99.99
2017-08-05T03:15:53.104Z,99.99
2017-08-05T03:17:03.068Z,99.99
2017-08-05T03:18:13.030Z,99.99
2017-08-05T03:19:22.988Z,99.99
2017-08-05T03:20:32.942Z,99.99
2017-08-05T03:21:43.212Z,99.99
2017-08-05T03:22:53.492Z,99.99
2017-08-05T03:24:03.782Z,99.99
2017-08-05T03:25:14.065Z,99.99
2017-08-05T03:26:24.337Z,99.99
2017-08-05T03:27:34.615Z,99.99
2017-08-05T03:28:44.586Z,99.99
2017-08-05T03:29:54.231Z,99.99
2017-08-05T03:31:04.498Z,99.99
2017-08-05T03:32:14.779Z,99.99
2017-08-05T03:33:25.050Z,99.99
2017-08-05T03:34:35.318Z,99.99
2017-08-05T03:35:45.276Z,99.99
2017-08-05T03:36:55.547Z,99.99
2017-08-05T03:38:05.828Z,99.99
2017-08-05T03:39:15.786Z,99.99
2017-08-05T03:40:26.056Z,99.99
2017-08-05T03:41:36.343Z,99.99
2017-08-05T03:42:46.617Z,99.99
2017-08-05T03:43:56.886Z,99.99
2017-08-05T03:45:07.162Z,99.99
2017-08-05T03:46:17.434Z,99.99
2017-08-05T03:47:27.702Z,99.99
2017-08-05T03:48:37.973Z,99.99
2017-08-05T03:49:48.245Z,99.99
2017-08-05T03:50:58.515Z,99.99
2017-08-05T03:52:08.787Z,99.99
2017-08-05T03:53:18.743Z,99.99
2017-08-05T03:54:28.725Z,99.99
2017-08-05T03:55:39.004Z,99.99
2017-08-05T03:56:49.274Z,99.99
2017-08-05T03:57:59.543Z,99.99
2017-08-05T03:59:09.819Z,99.99
2017-08-05T04:00:19.773Z,99.99
2017-08-05T04:01:30.048Z,99.99
2017-08-05T04:02:40.323Z,99.99
2017-08-05T04:03:50.594Z,99.99
2017-08-05T04:05:00.869Z,99.99
2017-08-05T04:06:11.140Z,99.99
2017-08-05T04:07:21.415Z,99.99
2017-08-05T04:08:31.686Z,99.99
2017-08-05T04:09:41.957Z,99.99
2017-08-05T04:10:52.227Z,99.99
2017-08-05T04:12:02.507Z,99.99
2017-08-05T04:13:12.149Z,99.99
2017-08-05T04:14:22.429Z,99.99
2017-08-05T04:15:32.698Z,99.99
2017-08-05T04:16:42.970Z,99.99
2017-08-05T04:17:53.239Z,99.99
2017-08-05T04:19:03.221Z,99.99
2017-08-05T04:20:13.503Z,99.99
2017-08-05T04:21:23.781Z,99.99
2017-08-05T04:22:34.052Z,99.99
2017-08-05T04:23:44.317Z,99.99
2017-08-05T04:24:54.277Z,99.99
2017-08-05T04:26:04.237Z,99.99
2017-08-05T04:27:14.202Z,99.99
2017-08-05T04:28:24.475Z,99.99
2017-08-05T04:29:34.747Z,99.99
2017-08-05T04:30:45.028Z,99.99
2017-08-05T04:31:55.298Z,99.99
2017-08-05T04:33:05.256Z,99.99
2017-08-05T04:34:15.530Z,99.99
2017-08-05T04:35:25.488Z,99.99
2017-08-05T04:36:35.763Z,99.99
2017-08-05T04:37:46.039Z,99.99
2017-08-05T04:38:56.310Z,99.99
2017-08-05T04:40:06.585Z,99.99
2017-08-05T04:41:16.549Z,99.99
2017-08-05T04:42:26.504Z,99.99
2017-08-05T04:43:36.775Z,99.99
2017-08-05T04:44:47.051Z,99.99
2017-08-05T04:45:57.326Z,99.99
2017-08-05T04:47:07.598Z,99.99
2017-08-05T04:48:17.563Z,99.99
2017-08-05T04:49:27.844Z,99.99
2017-08-05T04:50:37.802Z,99.99
2017-08-05T04:51:47.758Z,99.99
2017-08-05T04:52:58.034Z,99.99
2017-08-05T04:54:08.317Z,99.99
2017-08-05T04:55:18.275Z,99.99
2017-08-05T04:56:28.552Z,99.99
2017-08-05T04:57:38.829Z,99.99
2017-08-05T04:58:49.101Z,99.99
2017-08-05T04:59:59.385Z,99.99
2017-08-05T05:01:09.348Z,99.99
2017-08-05T05:02:19.618Z,99.99
2017-08-05T05:03:29.899Z,99.99
2017-08-05T05:04:39.856Z,99.99
2017-08-05T05:05:49.814Z,99.99
2017-08-05T05:06:59.769Z,99.99
2017-08-05T05:08:09.726Z,99.99
2017-08-05T05:09:19.999Z,99.99
2017-08-05T05:10:30.271Z,99.99
2017-08-05T05:11:40.546Z,99.99
2017-08-05T05:12:50.518Z,99.99
2017-08-05T05:14:00.792Z,99.99
2017-08-05T05:15:11.075Z,99.99
2017-08-05T05:16:21.347Z,99.99
2017-08-05T05:17:31.310Z,99.99
2017-08-05T05:18:41.597Z,99.99
2017-08-05T05:19:51.555Z,99.99
2017-08-05T05:21:01.833Z,99.99
2017-08-05T05:22:12.107Z,99.99
2017-08-05T05:23:22.378Z,99.99
2017-08-05T05:24:32.660Z,99.99
2017-08-05T05:25:42.934Z,99.99
2017-08-05T05:26:53.215Z,99.99
2017-08-05T05:28:02.859Z,99.99
2017-08-05T05:29:12.825Z,99.99
2017-08-05T05:30:23.098Z,99.99
2017-08-05T05:31:33.376Z,99.99
2017-08-05T05:32:43.649Z,99.99
2017-08-05T05:33:53.607Z,99.99
2017-08-05T05:35:03.885Z,99.99
2017-08-05T05:36:14.159Z,99.99
2017-08-05T05:37:24.119Z,99.99
2017-08-05T05:38:34.391Z,99.99
2017-08-05T05:39:44.347Z,99.99
2017-08-05T05:40:54.623Z,99.99
2017-08-05T05:42:04.604Z,99.99
2017-08-05T05:43:14.560Z,99.99
2017-08-05T05:44:24.830Z,99.99
2017-08-05T05:45:34.787Z,99.99
2017-08-05T05:46:45.061Z,99.99
2017-08-05T05:47:55.331Z,99.99
2017-08-05T05:49:05.601Z,99.99
2017-08-05T05:50:15.874Z,99.99
2017-08-05T05:51:26.148Z,99.52
2017-08-05T05:52:36.420Z,99.15
2017-08-05T05:53:46.694Z,98.86
2017-08-05T05:54:56.651Z,99.33
2017-08-05T05:56:06.933Z,99.43
2017-08-05T05:57:16.893Z,99.99
2017-08-05T05:58:26.856Z,99.99
2017-08-05T05:59:37.135Z,99.19
2017-08-05T06:00:47.422Z,98.52
2017-08-05T06:01:57.695Z,99.05
2017-08-05T06:03:07.966Z,97.52
2017-08-05T06:04:18.237Z,98.19
2017-08-05T06:05:28.205Z,98
2017-08-05T06:06:38.480Z,98.28
2017-08-05T06:07:48.134Z,98.47
2017-08-05T06:08:58.406Z,98.76
2017-08-05T06:10:08.366Z,99.91
2017-08-05T06:11:18.639Z,99.72
2017-08-05T06:12:28.923Z,99.38
2017-08-05T06:13:39.196Z,99.72
2017-08-05T06:14:49.470Z,97.66
2017-08-05T06:15:59.433Z,98.24
2017-08-05T06:17:09.409Z,97.28
2017-08-05T06:18:19.687Z,96.89
2017-08-05T06:19:29.959Z,97.28
2017-08-05T06:20:40.231Z,98.52
2017-08-05T06:21:50.504Z,97.66
2017-08-05T06:23:00.774Z,96.89
2017-08-05T06:24:10.427Z,96.7
2017-08-05T06:25:20.698Z,97.47
2017-08-05T06:26:30.652Z,97.18
2017-08-05T06:27:40.925Z,96.51
2017-08-05T06:28:51.198Z,96.03
2017-08-05T06:30:01.157Z,95.94
2017-08-05T06:31:11.114Z,95.07
2017-08-05T06:32:21.405Z,96.7
2017-08-05T06:33:31.701Z,96.99
2017-08-05T06:34:41.345Z,94.45
2017-08-05T06:35:51.622Z,96.03
2017-08-05T06:37:01.273Z,93.74
2017-08-05T06:38:11.801Z,94.98
2017-08-05T06:39:22.075Z,95.56
2017-08-05T06:40:32.353Z,95.36
2017-08-05T06:41:42.635Z,95.46
2017-08-05T06:42:52.603Z,95.75
2017-08-05T06:44:02.880Z,94.45
2017-08-05T06:45:12.842Z,94.31
2017-08-05T06:46:23.116Z,95.07
2017-08-05T06:47:32.451Z,94.17
2017-08-05T06:48:42.720Z,95.84
2017-08-05T06:49:53.010Z,94.45
2017-08-05T06:51:03.285Z,95.17
2017-08-05T06:52:13.554Z,94.12
2017-08-05T06:53:23.508Z,92.3
2017-08-05T06:54:33.162Z,93.64
2017-08-05T06:55:43.121Z,92.3
2017-08-05T06:56:53.398Z,92.35
2017-08-05T06:58:03.676Z,93.45
2017-08-05T06:59:13.952Z,94.17
2017-08-05T07:00:24.242Z,94.17
2017-08-05T07:01:34.572Z,93.3
2017-08-05T07:02:44.551Z,94.07
2017-08-05T07:03:54.821Z,93.3
2017-08-05T07:05:04.782Z,93.02
2017-08-05T07:06:14.744Z,93.35
2017-08-05T07:07:25.017Z,92.39
2017-08-05T07:08:34.972Z,91.34
2017-08-05T07:09:44.936Z,92.2
2017-08-05T07:10:55.208Z,90.95
2017-08-05T07:12:05.496Z,90.76
2017-08-05T07:13:15.779Z,90.04
2017-08-05T07:14:26.056Z,90.28
2017-08-05T07:15:36.028Z,90.33
2017-08-05T07:16:46.299Z,90.33
2017-08-05T07:17:56.257Z,87.26
2017-08-05T07:19:06.531Z,87.64
2017-08-05T07:20:16.808Z,88.65
2017-08-05T07:21:26.454Z,87.88
2017-08-05T07:22:36.726Z,88.79
2017-08-05T07:23:47.000Z,89.37
2017-08-05T07:24:57.272Z,89.56
2017-08-05T07:26:07.231Z,89.37
2017-08-05T07:27:17.510Z,90.04
2017-08-05T07:28:27.783Z,89.94
2017-08-05T07:29:37.752Z,89.22
2017-08-05T07:30:48.029Z,88.74
2017-08-05T07:31:57.677Z,89.12
2017-08-05T07:33:07.643Z,88.84
2017-08-05T07:34:17.917Z,89.03
2017-08-05T07:35:28.192Z,88.26
2017-08-05T07:36:38.467Z,87.21
2017-08-05T07:37:48.740Z,87.05
2017-08-05T07:38:58.712Z,87.25
2017-08-05T07:40:08.692Z,86.87
2017-08-05T07:41:18.658Z,85.24
2017-08-05T07:42:28.929Z,85.42
2017-08-05T07:43:39.208Z,86.29
2017-08-05T07:44:49.183Z,85.04
2017-08-05T07:45:59.469Z,85.08
2017-08-05T07:47:09.750Z,85.33
2017-08-05T07:48:20.030Z,84.51
2017-08-05T07:49:30.308Z,82.54
2017-08-05T07:50:40.592Z,83.31
2017-08-05T07:51:50.864Z,82.35
2017-08-05T07:53:01.145Z,84.33
2017-08-05T07:54:11.417Z,84.33
2017-08-05T07:55:21.066Z,85.28
2017-08-05T07:56:31.346Z,82.12
2017-08-05T07:57:41.664Z,82.12
2017-08-05T07:58:51.947Z,83.81
2017-08-05T08:00:02.228Z,84.81
2017-08-05T08:01:12.216Z,84.61
2017-08-05T08:02:22.496Z,83.47
2017-08-05T08:03:32.778Z,83.27
2017-08-05T08:04:43.065Z,85.19
2017-08-05T08:05:53.349Z,84.14
2017-08-05T08:07:03.623Z,85.19
2017-08-05T08:08:13.266Z,85.91
2017-08-05T08:09:23.226Z,85.62
2017-08-05T08:10:33.503Z,84.85
2017-08-05T08:11:45.780Z,85.95
2017-08-05T08:12:56.054Z,85.37
2017-08-05T08:14:06.333Z,83.74
2017-08-05T08:15:16.604Z,84.03
2017-08-05T08:16:26.569Z,83.54
2017-08-05T08:17:36.848Z,84.31
2017-08-05T08:18:47.132Z,84.31
2017-08-05T08:19:57.405Z,81.76
2017-08-05T08:21:07.369Z,82.1
2017-08-05T08:22:17.650Z,82.01
2017-08-05T08:23:28.183Z,81.92
2017-08-05T08:24:38.461Z,81.24
2017-08-05T08:25:48.739Z,81.24
2017-08-05T08:26:58.701Z,82.01
2017-08-05T08:28:08.980Z,83.16
2017-08-05T08:29:19.253Z,82.97
2017-08-05T08:30:29.526Z,82.1
2017-08-05T08:31:39.798Z,82.01
2017-08-05T08:32:50.076Z,81.09
2017-08-05T08:34:00.355Z,81.15
2017-08-05T08:35:10.318Z,80.96
2017-08-05T08:36:20.593Z,82.43
2017-08-05T08:37:30.873Z,82.15
2017-08-05T08:38:41.148Z,82.73
2017-08-05T08:39:51.428Z,82.82
2017-08-05T08:41:01.401Z,82.43
2017-08-05T08:42:11.677Z,83.49
2017-08-05T08:43:21.636Z,82.92
2017-08-05T08:44:31.928Z,82.29
2017-08-05T08:45:42.211Z,81.99
2017-08-05T08:46:52.483Z,81.52
2017-08-05T08:48:02.769Z,81.04
2017-08-05T08:49:12.730Z,81.32
2017-08-05T08:50:23.007Z,80.84
2017-08-05T08:51:33.287Z,80.65
2017-08-05T08:52:43.569Z,80.6
2017-08-05T08:53:53.846Z,79.82
2017-08-05T08:55:04.123Z,77.51
2017-08-05T08:56:14.402Z,79.79
2017-08-05T08:57:24.364Z,80.46
2017-08-05T08:58:34.640Z,80.65
2017-08-05T08:59:44.918Z,78.15
2017-08-05T09:00:54.885Z,77.29
2017-08-05T09:02:05.165Z,78.69
2017-08-05T09:03:15.443Z,80.04
2017-08-05T09:04:25.717Z,82.1
2017-08-05T09:05:36.008Z,82.97
2017-08-05T09:06:46.298Z,82.24
2017-08-05T09:07:56.575Z,81.86
2017-08-05T09:09:06.852Z,82.24
2017-08-05T09:10:16.824Z,81.48
2017-08-05T09:11:27.107Z,79.17
2017-08-05T09:12:37.380Z,79.36
2017-08-05T09:13:47.662Z,78.88
2017-08-05T09:14:57.935Z,80.9
2017-08-05T09:16:07.895Z,80.65
2017-08-05T09:17:18.169Z,80.07
2017-08-05T09:18:28.131Z,80.75
2017-08-05T09:19:38.407Z,81.04
2017-08-05T09:20:48.370Z,80.55
2017-08-05T09:21:58.644Z,80.3
2017-08-05T09:23:08.604Z,80.69
2017-08-05T09:24:18.253Z,80.79
2017-08-05T09:25:28.530Z,80.69
2017-08-05T09:26:38.493Z,81.07
2017-08-05T09:27:48.463Z,80.6
2017-08-05T09:28:58.426Z,80.02
2017-08-05T09:30:08.385Z,79.48
2017-08-05T09:31:18.345Z,79.15
2017-08-05T09:32:28.308Z,79.92
2017-08-05T09:33:38.587Z,79.1
2017-08-05T09:34:48.866Z,77.17
2017-08-05T09:35:58.833Z,77.42
2017-08-05T09:37:08.799Z,77.08
2017-08-05T09:38:19.081Z,77.46
2017-08-05T09:39:29.379Z,77.46
2017-08-05T09:40:39.687Z,76.59
2017-08-05T09:41:49.644Z,76.31
2017-08-05T09:42:59.295Z,74.86
2017-08-05T09:44:09.571Z,76.75
2017-08-05T09:45:19.852Z,76.46
2017-08-05T09:46:30.130Z,75.15
2017-08-05T09:47:40.413Z,75.88
2017-08-05T09:48:50.694Z,75.82
2017-08-05T09:50:00.968Z,75.54
2017-08-05T09:51:11.246Z,75.24
2017-08-05T09:52:21.547Z,76.11
2017-08-05T09:53:31.818Z,74.86
2017-08-05T09:54:41.791Z,74.09
2017-08-05T09:55:52.082Z,73.32
2017-08-05T09:57:02.057Z,73.42
2017-08-05T09:58:12.331Z,73.22
2017-08-05T09:59:21.977Z,74.38
2017-08-05T10:00:32.254Z,75.09
2017-08-05T10:01:42.216Z,74.41
2017-08-05T10:02:52.493Z,74.9
2017-08-05T10:04:02.772Z,72.59
2017-08-05T10:05:12.736Z,72.3
2017-08-05T10:06:23.018Z,71.81
2017-08-05T10:07:33.296Z,71.53
2017-08-05T10:08:42.941Z,73.36
2017-08-05T10:09:52.903Z,73.36
2017-08-05T10:11:02.883Z,71.53
2017-08-05T10:12:13.163Z,73.16
2017-08-05T10:13:23.444Z,73.46
2017-08-05T10:14:33.721Z,71.62
2017-08-05T10:15:43.684Z,71.62
2017-08-05T10:16:53.653Z,72.2
2017-08-05T10:18:03.927Z,72.59
2017-08-05T10:19:14.200Z,72.49
2017-08-05T10:20:23.847Z,70.76
2017-08-05T10:21:34.126Z,72.01
2017-08-05T10:22:44.090Z,73.36
2017-08-05T10:23:54.371Z,72.49
2017-08-05T10:25:04.653Z,72.78
2017-08-05T10:26:14.931Z,71.43
2017-08-05T10:27:24.893Z,71.14
2017-08-05T10:28:35.170Z,72.78
2017-08-05T10:29:45.442Z,71.72
2017-08-05T10:30:55.717Z,72.3
2017-08-05T10:32:05.997Z,73.07
2017-08-05T10:33:16.278Z,72.59
2017-08-05T10:34:26.554Z,71.3
2017-08-05T10:35:36.831Z,71.78
2017-08-05T10:36:46.858Z,71.2
2017-08-05T10:37:57.141Z,71.69
2017-08-05T10:39:07.417Z,71.69
2017-08-05T10:40:17.699Z,72.45
2017-08-05T10:41:27.662Z,71.59
2017-08-05T10:42:37.937Z,71.11
2017-08-05T10:43:48.213Z,70.15
2017-08-05T10:44:58.185Z,68.99
2017-08-05T10:46:08.158Z,69.18
2017-08-05T10:47:18.120Z,70.05
2017-08-05T10:48:28.394Z,71.11
2017-08-05T10:49:38.352Z,71.88
2017-08-05T10:50:48.671Z,70.72
2017-08-05T10:51:58.944Z,70.34
2017-08-05T10:53:09.230Z,71.78
2017-08-05T10:54:18.878Z,71.72
2017-08-05T10:55:29.166Z,72.45
2017-08-05T10:56:39.444Z,72.55
2017-08-05T10:57:49.713Z,72.45
2017-08-05T10:58:59.687Z,71.24
2017-08-05T11:00:09.962Z,71.97
2017-08-05T11:01:20.239Z,71.78
2017-08-05T11:02:30.204Z,72.17
2017-08-05T11:03:40.173Z,72.88
2017-08-05T11:04:50.474Z,71.04
2017-08-05T11:06:00.767Z,72.49
2017-08-05T11:07:10.417Z,71.81
2017-08-05T11:08:20.063Z,71.72
2017-08-05T11:09:30.055Z,72.2
2017-08-05T11:10:40.329Z,73.26
2017-08-05T11:11:50.611Z,72.11
2017-08-05T11:13:00.890Z,71.72
2017-08-05T11:14:11.181Z,71.37
2017-08-05T11:15:21.142Z,72.63
2017-08-05T11:16:31.418Z,72.53
2017-08-05T11:17:41.379Z,71.18
2017-08-05T11:18:51.344Z,70.41
2017-08-05T11:20:01.616Z,70.6
2017-08-05T11:21:11.897Z,71.79
2017-08-05T11:22:22.180Z,72.56
2017-08-05T11:23:32.135Z,71.5
2017-08-05T11:24:42.100Z,71.89
2017-08-05T11:25:52.067Z,71.7
2017-08-05T11:27:02.031Z,70.09
2017-08-05T11:28:11.990Z,70.28
2017-08-05T11:29:22.261Z,72.06
2017-08-05T11:30:32.224Z,70.8
2017-08-05T11:31:42.508Z,70.74
2017-08-05T11:32:52.785Z,69.52
2017-08-05T11:34:03.094Z,67.24
2017-08-05T11:35:13.066Z,65.72
2017-08-05T11:36:23.341Z,66.05
2017-08-05T11:37:33.613Z,65.05
2017-08-05T11:38:43.899Z,65.17
2017-08-05T11:39:54.178Z,62.13
2017-08-05T11:41:04.461Z,58.77
2017-08-05T11:42:14.743Z,59.67
2017-08-05T11:43:25.032Z,58.57
2017-08-05T11:44:35.315Z,58.59
2017-08-05T11:45:45.604Z,55.44
2017-08-05T11:46:55.573Z,53.91
2017-08-05T11:48:05.857Z,53.55
2017-08-05T11:49:16.140Z,53.77
2017-08-05T11:50:26.423Z,53.31
2017-08-05T11:51:36.395Z,50.51
2017-08-05T11:52:46.694Z,49.56
2017-08-05T11:53:56.664Z,49.19
2017-08-05T11:55:06.331Z,48.83
2017-08-05T11:56:16.619Z,47.28
2017-08-05T11:57:26.907Z,45.94
2017-08-05T11:58:37.196Z,47.7
2017-08-05T11:59:47.583Z,46.06
2017-08-05T12:00:57.247Z,46.69
2017-08-05T12:02:07.530Z,43.98
2017-08-05T12:03:17.817Z,45.05
2017-08-05T12:04:27.792Z,44.95
2017-08-05T12:05:37.765Z,43.43
2017-08-05T12:06:48.058Z,43.15
2017-08-05T12:07:58.352Z,43.05
2017-08-05T12:09:08.325Z,43.35
2017-08-05T12:10:18.621Z,42.49
2017-08-05T12:11:28.913Z,42.11
2017-08-05T12:12:39.204Z,40.64
2017-08-05T12:13:49.495Z,40.17
2017-08-05T12:14:59.790Z,40.66
2017-08-05T12:16:09.453Z,39.9
2017-08-05T12:17:19.436Z,38.84
2017-08-05T12:18:29.738Z,38.95
2017-08-05T12:19:39.713Z,39.15
2017-08-05T12:20:50.004Z,38.18
2017-08-05T12:21:59.678Z,39.09
2017-08-05T12:23:09.969Z,37.34
2017-08-05T12:24:19.945Z,39.23
2017-08-05T12:25:30.236Z,36.09
2017-08-05T12:26:40.534Z,35.5
2017-08-05T12:27:50.827Z,34.33
2017-08-05T12:29:01.121Z,33.64
2017-08-05T12:30:11.112Z,34.33
2017-08-05T12:31:21.400Z,34.34
2017-08-05T12:32:31.688Z,33.87
2017-08-05T12:33:41.981Z,33.37
2017-08-05T12:34:52.279Z,33.89
2017-08-05T12:36:02.257Z,31.73
2017-08-05T12:37:12.549Z,33.49
2017-08-05T12:38:22.845Z,32.12
2017-08-05T12:39:33.136Z,31.91
2017-08-05T12:40:43.436Z,31.02
2017-08-05T12:41:53.773Z,31.51
2017-08-05T12:43:04.069Z,31.13
2017-08-05T12:44:14.363Z,31.71
2017-08-05T12:45:24.340Z,31.33
2017-08-05T12:46:36.881Z,30.26
2017-08-05T12:47:47.179Z,30.06
2017-08-05T12:48:57.481Z,30.81
2017-08-05T12:50:07.777Z,30.99
2017-08-05T12:51:17.759Z,32.06
2017-08-05T12:52:28.057Z,31.85
2017-08-05T12:53:38.037Z,30.94
2017-08-05T12:54:48.335Z,30.24
2017-08-05T12:55:58.634Z,31.8
2017-08-05T12:57:08.931Z,32.31
2017-08-05T12:58:19.222Z,32.42
2017-08-05T12:59:29.512Z,33.41
2017-08-05T13:00:39.806Z,32.03
2017-08-05T13:01:49.783Z,33.22
2017-08-05T13:02:59.758Z,32.62
2017-08-05T13:04:10.054Z,32.44
2017-08-05T13:05:20.034Z,31.37
2017-08-05T13:06:30.011Z,31.47
2017-08-05T13:07:40.303Z,30.98
2017-08-05T13:08:50.603Z,29.79
2017-08-05T13:10:00.583Z,29.19
2017-08-05T13:11:10.564Z,28.78
2017-08-05T13:12:20.864Z,30.04
2017-08-05T13:13:30.842Z,31.13
2017-08-05T13:14:41.133Z,31.42
2017-08-05T13:15:51.112Z,30.26
2017-08-05T13:17:01.410Z,29.5
2017-08-05T13:18:11.706Z,28.03
2017-08-05T13:19:21.998Z,26.94
2017-08-05T13:20:31.983Z,27.84
2017-08-05T13:21:41.651Z,27.65
2017-08-05T13:22:51.641Z,29.03
2017-08-05T13:24:01.932Z,27.38
2017-08-05T13:25:11.916Z,28.08
2017-08-05T13:26:21.899Z,25.72
2017-08-05T13:27:31.877Z,23.94
2017-08-05T13:28:42.170Z,25.52
2017-08-05T13:29:52.465Z,27.11
2017-08-05T13:31:02.449Z,25.63
2017-08-05T13:32:12.742Z,26.03
2017-08-05T13:33:22.721Z,25.72
2017-08-05T13:34:32.700Z,24.15
2017-08-05T13:35:43.003Z,24.15
2017-08-05T13:36:53.297Z,25.44
2017-08-05T13:38:03.591Z,25.73
2017-08-05T13:39:13.573Z,24.07
2017-08-05T13:40:23.864Z,25.35
2017-08-05T13:41:33.847Z,24.48
2017-08-05T13:42:44.143Z,23.79
2017-08-05T13:43:54.432Z,24.88
2017-08-05T13:45:04.728Z,24.99
2017-08-05T13:46:15.036Z,21.83
2017-08-05T13:47:25.026Z,22.81
2017-08-05T13:48:35.327Z,21.52
2017-08-05T13:49:45.321Z,22.91
2017-08-05T13:50:55.300Z,22.71
2017-08-05T13:52:05.314Z,23.9
2017-08-05T13:53:15.300Z,23.8
2017-08-05T13:54:25.593Z,23.7
2017-08-05T13:55:35.891Z,22.22
2017-08-05T13:56:46.185Z,22.92
2017-08-05T13:57:56.479Z,22.03
2017-08-05T13:59:06.461Z,21.24
2017-08-05T14:00:16.441Z,21.35
2017-08-05T14:01:26.430Z,21.24
2017-08-05T14:02:36.729Z,22.24
2017-08-05T14:03:47.042Z,21.45
2017-08-05T14:04:57.345Z,22.05
2017-08-05T14:06:07.652Z,21.65
2017-08-05T14:07:17.948Z,20.27
2017-08-05T14:08:27.612Z,20.26
2017-08-05T14:09:37.630Z,21.34
2017-08-05T14:10:47.924Z,22.03
2017-08-05T14:11:58.212Z,21.34
2017-08-05T14:13:08.200Z,21.14
2017-08-05T14:14:18.500Z,21.54
2017-08-05T14:15:28.801Z,21.05
2017-08-05T14:16:38.783Z,20.76
2017-08-05T14:17:49.083Z,20.65
2017-08-05T14:18:59.063Z,20.54
2017-08-05T14:20:09.042Z,21.55
2017-08-05T14:21:19.334Z,20.46
2017-08-05T14:22:28.998Z,21.43
2017-08-05T14:23:38.658Z,20.65
2017-08-05T14:24:48.642Z,21.54
2017-08-05T14:25:58.931Z,20.56
2017-08-05T14:27:08.906Z,21.34
2017-08-05T14:28:18.881Z,20.65
2017-08-05T14:29:28.867Z,21.44
2017-08-05T14:30:38.849Z,20.65
2017-08-05T14:31:49.137Z,21.45
2017-08-05T14:32:59.111Z,20.67
2017-08-05T14:34:09.092Z,20.57
2017-08-05T14:35:19.381Z,20.67
2017-08-05T14:36:29.362Z,20.57
2017-08-05T14:37:39.655Z,20.18
2017-08-05T14:38:49.632Z,20.49
2017-08-05T14:39:59.293Z,19.1
2017-08-05T14:41:09.278Z,20.29
2017-08-05T14:42:19.269Z,19.39
2017-08-05T14:43:29.566Z,19.5
2017-08-05T14:44:39.546Z,19.1
2017-08-05T14:45:49.837Z,19.09
2017-08-05T14:47:00.139Z,19.29
2017-08-05T14:48:10.122Z,19.29
2017-08-05T14:49:20.412Z,19.29
2017-08-05T14:50:30.397Z,18.71
2017-08-05T14:51:40.700Z,18.99
2017-08-05T14:52:50.992Z,19.69
2017-08-05T14:54:01.283Z,20.2
2017-08-05T14:55:11.266Z,19.5
2017-08-05T14:56:20.934Z,19.31
2017-08-05T14:57:31.225Z,19.8
2017-08-05T14:58:40.915Z,19.31
2017-08-05T14:59:51.211Z,19.41
2017-08-05T15:01:01.512Z,19.2
2017-08-05T15:02:11.502Z,19.37
2017-08-05T15:03:21.797Z,20.54
2017-08-05T15:04:32.109Z,20.54
2017-08-05T15:05:42.404Z,20.45